Shipshewana, IN

5:31 PM EDT on September 01, 2015 (GMT -0400)
Kirsch Municipal | | Change Station
CLOSE
Current Station
Airport
Location: Sturgis,
Elevation: 925 ft
Nearby Weather Stations

Elev 925 ft 41.82 °N, 85.44 °W | Updated 16 minutes ago

Partly Cloudy
Partly Cloudy
72 °F
Feels Like 72 °F
N
5
Wind Variable Wind from WNW

Today
High -- | Low -- °F
--% Chance of Precip.
Yesterday
High -- | Low -- °F
Precip. -- in
7:08 AM 8:15 PM
Waning Gibbous, 86% visible
Pressure 30.05 in
Visibility 10.0 miles
Clouds Scattered Clouds 2300 ft
Scattered Clouds 3100 ft
Mostly Cloudy 3900 ft
Dew Point 66 °F
Humidity 83%
Rainfall 0.00 in
Snow Depth Not available.
UV 2 out of 12
Pollen 10.60 out of 12
Air Quality Not available.
Flu Activity Not available.
METAR KIRS 012115Z AUTO 30004KT 10SM -RA SCT023 SCT031 BKN039 22/19 A3005 RMK AO2
Pressure 30.05 in
Visibility 10.0 miles
Clouds Scattered Clouds 2300 ft
Scattered Clouds 3100 ft
Mostly Cloudy 3900 ft
Dew Point 66 °F
Humidity 83%
Rainfall 0.00 in
Snow Depth Not available.
UV 2 out of 12
Pollen 10.60 out of 12
Air Quality Not available.
Flu Activity Not available.
METAR KIRS 012115Z AUTO 30004KT 10SM -RA SCT023 SCT031 BKN039 22/19 A3005 RMK AO2

10-Day Weather Forecast

×

Almanac

Astronomy

Sep. 01, 2015 Rise Set
Actual Time
Civil Twilight
Nautical Twilight
Astronomical Twilight
Moon
Length of Visible Light
Length of Day
Tomorrow will be .
, % of the Moon is Illuminated

Today's Extremes

State Highs State Lows

Community

WunderPhotos

Upload Photos

1,851,628 photos uploaded!

WunderBlogs® & News

Nearby

Air Quality

  Air Quality AQ Index Pollutant
Not available.

Snow Depth

Station Depth Elevation

Earthquake Activity

City Distance Mag. Time & Date
Minimum magnitude displayed is 2.5.

Coastal Water Temperatures

Place Temperature

Stations

Nearby Weather Stations

Station Location Temp. Windchill Dew Point Humidity Wind Precip. Elev Updated Type